PWSweather.com
Personal Weather Stations
Station Observations
TXALLEN104
Watters Crossing, Allen, TX 75013

Watters CrossingAllen, TX 75013

Lat: 33.096, Lon: -96.697

Elevation: 672

Station Type: Davis Vantage Pro2 Plus

http://www.allenweather.com

High Low Average
Temperature 79.2°F26.2°C 71.6°F22.0°C 74.6°F23.7°C
Dew Point 73.2°F22.9°C 69.5°F20.8°C 71.2°F21.8°C
Winds 1.0 mph 1.6 kmh Calm Calm Calm ESECalm ESE
Wind Gusts 7.0 mph11.3 kmh -- 1.0 mph1.6 kmh
Humidity 94% 80% 89%
Pressure 29.99 in1015.6 mb 29.93 in1013.5 mb -
Precipitation 0.37 in9.4 mm - -
Hour Temp Dew Point Humidity Winds Wind Gusts Pressure Precip Precip Rate Daily Precip Total
04:10 PM 78.1°F25.6°C 73.2°F22.9°C 85% Calm Calm -- 29.93 in1013.5 mb 0.00 in0.0 mm 0.00 in0.0 mm 0.00 in0.0 mm
04:15 PM 78.0°F25.6°C 72.4°F22.4°C 83% Calm Calm -- 29.93 in1013.5 mb 0.00 in0.0 mm 0.00 in0.0 mm 0.00 in0.0 mm
04:20 PM 78.0°F25.6°C 72.0°F22.2°C 82% Calm Calm -- 29.93 in1013.5 mb 0.00 in0.0 mm 0.00 in0.0 mm 0.00 in0.0 mm
04:25 PM 78.2°F25.7°C 72.6°F22.6°C 83% Calm Calm -- 29.93 in1013.5 mb 0.00 in0.0 mm 0.00 in0.0 mm 0.00 in0.0 mm
04:30 PM 78.4°F25.8°C 73.2°F22.9°C 84% Calm Calm -- 29.93 in1013.5 mb 0.00 in0.0 mm 0.00 in0.0 mm 0.00 in0.0 mm
04:35 PM 78.5°F25.8°C 72.9°F22.7°C 83% Calm Calm -- 29.93 in1013.5 mb 0.00 in0.0 mm 0.00 in0.0 mm 0.00 in0.0 mm
04:40 PM 78.9°F26.1°C 72.9°F22.7°C 82% Calm Calm -- 29.93 in1013.5 mb 0.01 in0.3 mm 0.12 in3.0 mm 0.01 in0.3 mm
04:45 PM 79.1°F26.2°C 72.8°F22.7°C 81% Calm Calm -- 29.93 in1013.5 mb 0.01 in0.3 mm 0.00 in0.0 mm 0.01 in0.3 mm
04:50 PM 78.8°F26.0°C 72.5°F22.5°C 81% Calm Calm -- 29.93 in1013.5 mb 0.01 in0.3 mm 0.00 in0.0 mm 0.01 in0.3 mm
04:55 PM 78.8°F26.0°C 72.5°F22.5°C 81% Calm Calm -- 29.93 in1013.5 mb 0.01 in0.3 mm 0.00 in0.0 mm 0.01 in0.3 mm
05:00 PM 79.1°F26.2°C 72.8°F22.7°C 81% Calm Calm -- 29.93 in1013.5 mb 0.01 in0.3 mm 0.00 in0.0 mm 0.01 in0.3 mm
05:05 PM 79.2°F26.2°C 72.5°F22.5°C 80% Calm Calm -- 29.93 in1013.5 mb 0.01 in0.3 mm 0.00 in0.0 mm 0.01 in0.3 mm
05:10 PM 79.1°F26.2°C 72.4°F22.4°C 80% Calm Calm -- 29.93 in1013.5 mb 0.01 in0.3 mm 0.00 in0.0 mm 0.01 in0.3 mm
05:15 PM 79.1°F26.2°C 72.4°F22.4°C 80% Calm Calm -- 29.93 in1013.5 mb 0.01 in0.3 mm 0.00 in0.0 mm 0.01 in0.3 mm
05:20 PM 78.9°F26.1°C 72.2°F22.3°C 80% Calm Calm -- 29.93 in1013.5 mb 0.01 in0.3 mm 0.00 in0.0 mm 0.01 in0.3 mm
05:25 PM 78.7°F25.9°C 72.0°F22.2°C 80% Calm Calm -- 29.93 in1013.5 mb 0.01 in0.3 mm 0.00 in0.0 mm 0.01 in0.3 mm
05:30 PM 78.6°F25.9°C 72.3°F22.4°C 81% Calm Calm -- 29.93 in1013.5 mb 0.01 in0.3 mm 0.00 in0.0 mm 0.01 in0.3 mm
05:35 PM 78.5°F25.8°C 72.2°F22.3°C 81% Calm Calm -- 29.93 in1013.5 mb 0.01 in0.3 mm 0.00 in0.0 mm 0.01 in0.3 mm
05:40 PM 78.4°F25.8°C 72.1°F22.3°C 81% Calm Calm -- 29.93 in1013.5 mb 0.00 in0.0 mm 0.00 in0.0 mm 0.01 in0.3 mm
05:45 PM 78.4°F25.8°C 72.4°F22.4°C 82% Calm Calm -- 29.94 in1013.9 mb 0.00 in0.0 mm 0.00 in0.0 mm 0.01 in0.3 mm
05:50 PM 78.2°F25.7°C 72.6°F22.6°C 83% Calm Calm -- 29.94 in1013.9 mb 0.00 in0.0 mm 0.00 in0.0 mm 0.01 in0.3 mm
05:55 PM 77.9°F25.5°C 73.0°F22.8°C 85% Calm Calm -- 29.94 in1013.9 mb 0.01 in0.3 mm 0.12 in3.0 mm 0.02 in0.5 mm
06:00 PM 77.1°F25.1°C 72.6°F22.6°C 86% Calm Calm -- 29.94 in1013.9 mb 0.03 in0.8 mm 0.02 in0.5 mm 0.04 in1.0 mm
06:05 PM 76.5°F24.7°C 72.7°F22.6°C 88% Calm Calm -- 29.93 in1013.5 mb 0.05 in1.3 mm 0.24 in6.1 mm 0.06 in1.5 mm
06:10 PM 76.2°F24.6°C 72.7°F22.6°C 89% Calm Calm -- 29.93 in1013.5 mb 0.05 in1.3 mm 0.00 in0.0 mm 0.06 in1.5 mm
06:15 PM 76.0°F24.4°C 72.8°F22.7°C 90% Calm Calm -- 29.93 in1013.5 mb 0.05 in1.3 mm 0.00 in0.0 mm 0.06 in1.5 mm
06:20 PM 75.7°F24.3°C 72.6°F22.6°C 90% Calm Calm -- 29.93 in1013.5 mb 0.05 in1.3 mm 0.00 in0.0 mm 0.06 in1.5 mm
06:25 PM 75.6°F24.2°C 72.5°F22.5°C 90% Calm Calm -- 29.93 in1013.5 mb 0.06 in1.5 mm 0.12 in3.0 mm 0.07 in1.8 mm
06:30 PM 75.5°F24.2°C 72.4°F22.4°C 90% Calm Calm 3.0 mph4.8 kmh 29.93 in1013.5 mb 0.06 in1.5 mm 0.00 in0.0 mm 0.07 in1.8 mm
06:35 PM 75.6°F24.2°C 72.5°F22.5°C 90% Calm Calm 3.0 mph4.8 kmh 29.93 in1013.5 mb 0.06 in1.5 mm 0.00 in0.0 mm 0.07 in1.8 mm
06:40 PM 75.6°F24.2°C 72.5°F22.5°C 90% Calm Calm 2.0 mph3.2 kmh 29.93 in1013.5 mb 0.06 in1.5 mm 0.00 in0.0 mm 0.07 in1.8 mm
06:45 PM 75.6°F24.2°C 72.5°F22.5°C 90% Calm Calm 2.0 mph3.2 kmh 29.93 in1013.5 mb 0.06 in1.5 mm 0.00 in0.0 mm 0.07 in1.8 mm
06:50 PM 75.7°F24.3°C 72.6°F22.6°C 90% Calm Calm 3.0 mph4.8 kmh 29.93 in1013.5 mb 0.06 in1.5 mm 0.00 in0.0 mm 0.07 in1.8 mm
06:55 PM 75.6°F24.2°C 72.5°F22.5°C 90% Calm Calm 1.0 mph1.6 kmh 29.93 in1013.5 mb 0.05 in1.3 mm 0.00 in0.0 mm 0.07 in1.8 mm
07:00 PM 75.6°F24.2°C 72.5°F22.5°C 90% Calm Calm -- 29.93 in1013.5 mb 0.03 in0.8 mm 0.00 in0.0 mm 0.07 in1.8 mm
07:05 PM 75.6°F24.2°C 72.5°F22.5°C 90% Calm Calm 2.0 mph3.2 kmh 29.93 in1013.5 mb 0.01 in0.3 mm 0.00 in0.0 mm 0.07 in1.8 mm
07:10 PM 75.4°F24.1°C 72.3°F22.4°C 90% 1.0 mph NNE1.6 kmh NNE 5.0 mph8.0 kmh 29.93 in1013.5 mb 0.01 in0.3 mm 0.00 in0.0 mm 0.07 in1.8 mm
07:15 PM 75.3°F24.1°C 72.2°F22.3°C 90% Calm Calm 5.0 mph8.0 kmh 29.93 in1013.5 mb 0.01 in0.3 mm 0.00 in0.0 mm 0.07 in1.8 mm
07:20 PM 75.2°F24.0°C 72.1°F22.3°C 90% 1.0 mph NE1.6 kmh NE 3.0 mph4.8 kmh 29.93 in1013.5 mb 0.01 in0.3 mm 0.00 in0.0 mm 0.07 in1.8 mm
07:25 PM 75.2°F24.0°C 72.4°F22.4°C 91% Calm Calm 2.0 mph3.2 kmh 29.93 in1013.5 mb 0.00 in0.0 mm 0.00 in0.0 mm 0.07 in1.8 mm
07:30 PM 75.2°F24.0°C 72.4°F22.4°C 91% 1.0 mph NE1.6 kmh NE 3.0 mph4.8 kmh 29.93 in1013.5 mb 0.00 in0.0 mm 0.00 in0.0 mm 0.07 in1.8 mm
07:35 PM 75.1°F23.9°C 72.3°F22.4°C 91% 1.0 mph S1.6 kmh S 4.0 mph6.4 kmh 29.94 in1013.9 mb 0.00 in0.0 mm 0.00 in0.0 mm 0.07 in1.8 mm
07:40 PM 74.9°F23.8°C 72.1°F22.3°C 91% 1.0 mph SSE1.6 kmh SSE 5.0 mph8.0 kmh 29.93 in1013.5 mb 0.00 in0.0 mm 0.00 in0.0 mm 0.07 in1.8 mm
07:45 PM 74.8°F23.8°C 72.0°F22.2°C 91% Calm Calm 3.0 mph4.8 kmh 29.93 in1013.5 mb 0.00 in0.0 mm 0.00 in0.0 mm 0.07 in1.8 mm
07:50 PM 74.5°F23.6°C 71.4°F21.9°C 90% 1.0 mph E1.6 kmh E 3.0 mph4.8 kmh 29.93 in1013.5 mb 0.00 in0.0 mm 0.00 in0.0 mm 0.07 in1.8 mm
07:55 PM 74.1°F23.4°C 71.3°F21.8°C 91% 1.0 mph ESE1.6 kmh ESE 6.0 mph9.7 kmh 29.94 in1013.9 mb 0.00 in0.0 mm 0.00 in0.0 mm 0.07 in1.8 mm
08:00 PM 73.9°F23.3°C 71.1°F21.7°C 91% Calm Calm 2.0 mph3.2 kmh 29.94 in1013.9 mb 0.00 in0.0 mm 0.00 in0.0 mm 0.07 in1.8 mm
08:05 PM 73.9°F23.3°C 71.1°F21.7°C 91% Calm Calm 2.0 mph3.2 kmh 29.94 in1013.9 mb 0.00 in0.0 mm 0.00 in0.0 mm 0.07 in1.8 mm
08:10 PM 73.7°F23.2°C 70.6°F21.4°C 90% 1.0 mph ESE1.6 kmh ESE 5.0 mph8.0 kmh 29.95 in1014.2 mb 0.00 in0.0 mm 0.00 in0.0 mm 0.07 in1.8 mm
08:15 PM 73.6°F23.1°C 70.5°F21.4°C 90% 1.0 mph SSE1.6 kmh SSE 6.0 mph9.7 kmh 29.96 in1014.6 mb 0.00 in0.0 mm 0.00 in0.0 mm 0.07 in1.8 mm
08:20 PM 73.6°F23.1°C 70.8°F21.6°C 91% 1.0 mph SE1.6 kmh SE 3.0 mph4.8 kmh 29.96 in1014.6 mb 0.00 in0.0 mm 0.00 in0.0 mm 0.07 in1.8 mm
08:25 PM 73.6°F23.1°C 70.8°F21.6°C 91% 1.0 mph SE1.6 kmh SE 3.0 mph4.8 kmh 29.97 in1014.9 mb 0.00 in0.0 mm 0.00 in0.0 mm 0.07 in1.8 mm
08:30 PM 73.5°F23.1°C 70.7°F21.5°C 91% 1.0 mph SE1.6 kmh SE 7.0 mph11.3 kmh 29.96 in1014.6 mb 0.00 in0.0 mm 0.00 in0.0 mm 0.07 in1.8 mm
08:35 PM 73.4°F23.0°C 70.6°F21.4°C 91% 1.0 mph SE1.6 kmh SE 4.0 mph6.4 kmh 29.96 in1014.6 mb 0.00 in0.0 mm 0.00 in0.0 mm 0.07 in1.8 mm
08:40 PM 73.4°F23.0°C 70.9°F21.6°C 92% Calm Calm 1.0 mph1.6 kmh 29.97 in1014.9 mb 0.00 in0.0 mm 0.00 in0.0 mm 0.07 in1.8 mm
08:45 PM 73.3°F22.9°C 70.8°F21.6°C 92% Calm Calm -- 29.97 in1014.9 mb 0.00 in0.0 mm 0.00 in0.0 mm 0.07 in1.8 mm
08:50 PM 73.3°F22.9°C 70.8°F21.6°C 92% Calm Calm -- 29.97 in1014.9 mb 0.00 in0.0 mm 0.00 in0.0 mm 0.07 in1.8 mm
08:55 PM 73.2°F22.9°C 70.7°F21.5°C 92% Calm Calm 2.0 mph3.2 kmh 29.98 in1015.2 mb 0.01 in0.3 mm 0.12 in3.0 mm 0.08 in2.0 mm
09:00 PM 73.1°F22.8°C 70.6°F21.4°C 92% 1.0 mph SSE1.6 kmh SSE 3.0 mph4.8 kmh 29.98 in1015.2 mb 0.07 in1.8 mm 0.07 in1.8 mm 0.14 in3.6 mm
09:05 PM 72.8°F22.7°C 70.3°F21.3°C 92% Calm Calm 2.0 mph3.2 kmh 29.99 in1015.6 mb 0.12 in3.0 mm 0.60 in15.2 mm 0.19 in4.8 mm
09:10 PM 72.4°F22.4°C 69.9°F21.1°C 92% Calm Calm 1.0 mph1.6 kmh 29.99 in1015.6 mb 0.15 in3.8 mm 0.36 in9.1 mm 0.22 in5.6 mm
09:15 PM 72.2°F22.3°C 70.1°F21.2°C 93% Calm Calm 2.0 mph3.2 kmh 29.99 in1015.6 mb 0.25 in6.4 mm 1.20 in30.5 mm 0.32 in8.1 mm
09:20 PM 72.2°F22.3°C 70.1°F21.2°C 93% Calm Calm 2.0 mph3.2 kmh 29.99 in1015.6 mb 0.28 in7.1 mm 0.36 in9.1 mm 0.35 in8.9 mm
09:25 PM 72.1°F22.3°C 70.0°F21.1°C 93% Calm Calm -- 29.98 in1015.2 mb 0.29 in7.4 mm 0.12 in3.0 mm 0.36 in9.1 mm
09:30 PM 71.8°F22.1°C 69.7°F20.9°C 93% Calm Calm 2.0 mph3.2 kmh 29.98 in1015.2 mb 0.29 in7.4 mm 0.00 in0.0 mm 0.36 in9.1 mm
09:35 PM 71.7°F22.1°C 69.6°F20.9°C 93% Calm Calm 1.0 mph1.6 kmh 29.99 in1015.6 mb 0.29 in7.4 mm 0.00 in0.0 mm 0.36 in9.1 mm
09:40 PM 71.7°F22.1°C 69.6°F20.9°C 93% Calm Calm 2.0 mph3.2 kmh 29.98 in1015.2 mb 0.29 in7.4 mm 0.00 in0.0 mm 0.36 in9.1 mm
09:45 PM 71.6°F22.0°C 69.5°F20.8°C 93% Calm Calm 1.0 mph1.6 kmh 29.98 in1015.2 mb 0.29 in7.4 mm 0.00 in0.0 mm 0.36 in9.1 mm
09:50 PM 71.7°F22.1°C 69.6°F20.9°C 93% Calm Calm -- 29.98 in1015.2 mb 0.29 in7.4 mm 0.00 in0.0 mm 0.36 in9.1 mm
09:55 PM 71.7°F22.1°C 69.6°F20.9°C 93% Calm Calm -- 29.98 in1015.2 mb 0.29 in7.4 mm 0.00 in0.0 mm 0.37 in9.4 mm
10:00 PM 71.7°F22.1°C 69.9°F21.1°C 94% Calm Calm -- 29.98 in1015.2 mb 0.23 in5.8 mm 0.00 in0.0 mm 0.37 in9.4 mm
10:05 PM 71.7°F22.1°C 69.6°F20.9°C 93% Calm Calm -- 29.98 in1015.2 mb 0.18 in4.6 mm 0.00 in0.0 mm 0.37 in9.4 mm
10:10 PM 71.7°F22.1°C 69.6°F20.9°C 93% Calm Calm 2.0 mph3.2 kmh 29.99 in1015.6 mb 0.15 in3.8 mm 0.00 in0.0 mm 0.37 in9.4 mm
10:15 PM 71.7°F22.1°C 69.6°F20.9°C 93% Calm Calm -- 29.99 in1015.6 mb 0.05 in1.3 mm 0.00 in0.0 mm 0.37 in9.4 mm
10:20 PM 71.8°F22.1°C 69.7°F20.9°C 93% Calm Calm -- 29.99 in1015.6 mb 0.02 in0.5 mm 0.00 in0.0 mm 0.37 in9.4 mm
10:25 PM 71.8°F22.1°C 69.7°F20.9°C 93% Calm Calm -- 29.98 in1015.2 mb 0.01 in0.3 mm 0.00 in0.0 mm 0.37 in9.4 mm
10:30 PM 71.8°F22.1°C 69.7°F20.9°C 93% Calm Calm -- 29.98 in1015.2 mb 0.01 in0.3 mm 0.00 in0.0 mm 0.37 in9.4 mm
10:35 PM 71.9°F22.2°C 69.8°F21.0°C 93% Calm Calm -- 29.99 in1015.6 mb 0.01 in0.3 mm 0.00 in0.0 mm 0.37 in9.4 mm
10:40 PM 71.9°F22.2°C 69.8°F21.0°C 93% Calm Calm -- 29.99 in1015.6 mb 0.01 in0.3 mm 0.00 in0.0 mm 0.37 in9.4 mm
10:45 PM 71.9°F22.2°C 69.8°F21.0°C 93% Calm Calm -- 29.99 in1015.6 mb 0.01 in0.3 mm 0.00 in0.0 mm 0.37 in9.4 mm
10:50 PM 72.0°F22.2°C 69.9°F21.1°C 93% Calm Calm -- 29.99 in1015.6 mb 0.01 in0.3 mm 0.00 in0.0 mm 0.37 in9.4 mm
10:55 PM 72.0°F22.2°C 69.9°F21.1°C 93% Calm Calm -- 29.99 in1015.6 mb 0.00 in0.0 mm 0.00 in0.0 mm 0.37 in9.4 mm
11:00 PM 71.9°F22.2°C 69.8°F21.0°C 93% Calm Calm -- 29.99 in1015.6 mb 0.00 in0.0 mm 0.00 in0.0 mm 0.36 in9.1 mm
11:05 PM 71.9°F22.2°C 69.8°F21.0°C 93% Calm Calm -- 29.99 in1015.6 mb 0.00 in0.0 mm 0.00 in0.0 mm 0.36 in9.1 mm
11:10 PM 71.8°F22.1°C 69.7°F20.9°C 93% Calm Calm -- 29.99 in1015.6 mb 0.00 in0.0 mm 0.00 in0.0 mm 0.36 in9.1 mm
11:15 PM 71.9°F22.2°C 69.8°F21.0°C 93% Calm Calm -- 29.99 in1015.6 mb 0.00 in0.0 mm 0.00 in0.0 mm 0.36 in9.1 mm
11:20 PM 72.0°F22.2°C 69.9°F21.1°C 93% Calm Calm -- 29.99 in1015.6 mb 0.00 in0.0 mm 0.00 in0.0 mm 0.36 in9.1 mm
11:25 PM 72.1°F22.3°C 70.0°F21.1°C 93% Calm Calm -- 29.99 in1015.6 mb 0.00 in0.0 mm 0.00 in0.0 mm 0.36 in9.1 mm
11:30 PM 72.1°F22.3°C 70.0°F21.1°C 93% Calm Calm -- 29.99 in1015.6 mb 0.00 in0.0 mm 0.00 in0.0 mm 0.36 in9.1 mm
11:35 PM 72.2°F22.3°C 70.1°F21.2°C 93% Calm Calm -- 29.99 in1015.6 mb 0.00 in0.0 mm 0.00 in0.0 mm 0.36 in9.1 mm
11:40 PM 72.2°F22.3°C 70.1°F21.2°C 93% Calm Calm -- 29.98 in1015.2 mb 0.00 in0.0 mm 0.00 in0.0 mm 0.36 in9.1 mm
11:45 PM 72.2°F22.3°C 70.1°F21.2°C 93% Calm Calm -- 29.98 in1015.2 mb 0.00 in0.0 mm 0.00 in0.0 mm 0.36 in9.1 mm
11:50 PM 72.1°F22.3°C 70.0°F21.1°C 93% Calm Calm -- 29.98 in1015.2 mb 0.00 in0.0 mm 0.00 in0.0 mm 0.36 in9.1 mm
11:55 PM 72.1°F22.3°C 70.0°F21.1°C 93% Calm Calm -- 29.98 in1015.2 mb 0.00 in0.0 mm 0.00 in0.0 mm 0.36 in9.1 mm